Time;durP1;ratioP1;P1;durP2;ratioP2;P2;SDS_P1;SDS_P2;PMS_P1;PMS_P2;Temp;Humidity;BMP_temperature;BMP_pressure;BME280_temperature;BME280_humidity;BME280_pressure;Samples;Min_cycle;Max_cycle;Signal;HPM_P1;HPM_P2
2021/05/23 00:04:08;;;;;;;7.85;1.98;;;;;;;11.29;76.56;99804.49;3460841;83;32949;-90
2021/05/23 00:09:09;;;;;;;7.12;2.00;;;;;;;11.29;76.56;99800.36;3425839;84;98637;-88
2021/05/23 00:14:10;;;;;;;6.10;2.03;;;;;;;11.29;76.60;99803.73;3428036;84;33000;-90
2021/05/23 00:19:11;;;;;;;7.00;2.13;;;;;;;11.28;76.91;99805.68;3412803;84;98759;-87
2021/05/23 00:24:12;;;;;;;6.87;2.60;;;;;;;11.28;77.12;99811.80;3428733;84;32494;-87
2021/05/23 00:29:14;;;;;;;6.10;2.00;;;;;;;11.27;77.69;99803.31;3425197;84;98696;-87
2021/05/23 00:34:15;;;;;;;4.73;2.10;;;;;;;11.24;77.96;99805.50;3425111;84;32534;-87
2021/05/23 00:39:16;;;;;;;4.97;1.73;;;;;;;11.22;78.31;99808.64;3418331;84;98720;-87
2021/05/23 00:44:17;;;;;;;6.50;1.67;;;;;;;11.22;78.17;99805.09;3441090;84;32563;-85
2021/05/23 00:49:17;;;;;;;7.50;2.23;;;;;;;11.23;78.08;99791.54;3432881;84;98739;-87
2021/05/23 00:54:18;;;;;;;5.95;1.60;;;;;;;11.21;78.33;99789.75;3428660;84;26330;-88
2021/05/23 00:59:19;;;;;;;4.62;1.50;;;;;;;11.14;78.23;99793.91;3427570;84;98714;-87
2021/05/23 01:04:19;;;;;;;5.03;2.00;;;;;;;11.14;78.16;99791.95;3427188;84;26183;-86
2021/05/23 01:09:22;;;;;;;5.13;1.63;;;;;;;11.11;78.25;99784.47;3425399;84;98596;-86
2021/05/23 01:14:50;;;;;;;7.30;1.70;;;;;;;11.08;77.89;99796.86;3435464;84;25944;-87
2021/05/23 01:20:14;;;;;;;4.83;2.20;;;;;;;11.04;77.97;99795.50;3435473;84;30781;-87
2021/05/23 01:25:19;;;;;;;5.05;1.75;;;;;;;10.95;78.07;99788.22;3420803;84;99018;-87
2021/05/23 01:30:32;;;;;;;4.33;1.45;;;;;;;10.91;78.02;99788.80;3432141;84;32954;-88
2021/05/23 01:35:39;;;;;;;9.87;1.90;;;;;;;10.81;78.22;99791.00;3424573;84;98971;-87
2021/05/23 01:40:40;;;;;;;5.60;1.72;;;;;;;10.70;78.67;99798.47;3425731;84;32449;-87
2021/05/23 01:45:41;;;;;;;4.47;1.85;;;;;;;10.61;78.66;99805.52;3431160;83;99206;-87
2021/05/23 01:50:43;;;;;;;6.20;2.20;;;;;;;10.53;78.87;99803.95;3428199;84;25791;-89
2021/05/23 01:55:44;;;;;;;6.70;2.13;;;;;;;10.45;78.83;99814.72;3428965;84;99050;-87
2021/05/23 02:00:48;;;;;;;8.53;2.33;;;;;;;10.39;79.02;99819.04;3425720;84;25807;-87
2021/05/23 02:05:53;;;;;;;7.50;2.50;;;;;;;10.30;79.13;99830.41;3414468;84;98685;-87
2021/05/23 02:10:58;;;;;;;6.33;2.80;;;;;;;10.21;79.38;99835.52;3428001;84;30824;-88
2021/05/23 02:15:59;;;;;;;8.73;3.10;;;;;;;10.15;79.62;99841.77;3417101;84;99010;-88
2021/05/23 02:21:01;;;;;;;6.57;2.63;;;;;;;10.06;80.10;99842.72;3433815;84;25909;-88
2021/05/23 02:26:02;;;;;;;9.80;3.20;;;;;;;9.98;80.17;99856.98;3420343;84;98642;-87
2021/05/23 02:31:02;;;;;;;9.70;4.13;;;;;;;9.92;80.55;99858.53;3427945;84;26288;-88
2021/05/23 02:36:04;;;;;;;8.00;3.13;;;;;;;9.85;80.57;99866.75;3419175;84;98447;-89
2021/05/23 02:41:04;;;;;;;9.33;3.73;;;;;;;9.77;81.71;99869.25;3421829;84;25833;-88
2021/05/23 02:46:05;;;;;;;7.70;2.97;;;;;;;9.70;81.25;99865.09;3415804;84;98593;-87
2021/05/23 02:51:06;;;;;;;8.57;3.33;;;;;;;9.67;81.40;99871.37;3432821;84;25999;-88
2021/05/23 02:56:07;;;;;;;6.57;3.03;;;;;;;9.64;81.67;99864.46;3429718;83;98654;-88
2021/05/23 03:01:08;;;;;;;6.37;3.00;;;;;;;9.61;81.90;99863.87;3436053;84;26094;-88
2021/05/23 03:06:09;;;;;;;6.20;2.60;;;;;;;9.54;81.86;99862.47;3424305;83;98575;-90
2021/05/23 03:11:10;;;;;;;9.43;2.80;;;;;;;9.57;82.52;99874.84;3429425;84;26398;-86
2021/05/23 03:16:11;;;;;;;7.33;3.35;;;;;;;9.58;82.62;99878.36;3423099;84;98756;-88
2021/05/23 03:21:12;;;;;;;7.47;3.10;;;;;;;9.60;82.88;99876.04;3428561;84;26321;-89
2021/05/23 03:26:12;;;;;;;9.40;3.10;;;;;;;9.63;82.90;99872.51;3417211;84;98505;-89
2021/05/23 03:31:13;;;;;;;6.57;2.73;;;;;;;9.65;82.82;99872.93;3435025;84;33653;-88
2021/05/23 03:36:14;;;;;;;7.10;2.62;;;;;;;9.70;83.00;99887.08;3426226;84;98628;-86
2021/05/23 03:41:15;;;;;;;9.05;2.95;;;;;;;9.77;82.89;99890.45;3429521;84;33310;-88
2021/05/23 03:46:16;;;;;;;8.43;2.07;;;;;;;9.85;83.06;99886.56;3417951;84;98537;-87
2021/05/23 03:51:17;;;;;;;8.73;2.27;;;;;;;9.94;83.20;99898.01;3430444;84;31691;-87
2021/05/23 03:56:17;;;;;;;7.03;2.33;;;;;;;10.03;83.27;99901.97;3419588;84;98269;-87
2021/05/23 04:01:18;;;;;;;4.83;2.20;;;;;;;10.17;83.44;99906.78;3428545;84;31645;-87
2021/05/23 04:06:19;;;;;;;5.30;1.92;;;;;;;10.29;83.20;99920.98;3420175;84;99068;-87
2021/05/23 04:11:28;;;;;;;5.63;1.93;;;;;;;10.42;83.41;99925.55;3424004;84;31612;-87
2021/05/23 04:16:25;;;;;;;4.25;1.70;;;;;;;10.54;83.05;99921.87;3426349;83;98912;-87
2021/05/23 04:21:26;;;;;;;5.03;1.87;;;;;;;10.65;82.93;99926.02;3431775;84;31669;-88
2021/05/23 04:26:26;;;;;;;4.17;1.80;;;;;;;10.74;82.78;99929.96;3410979;84;98955;-86
2021/05/23 04:31:27;;;;;;;6.73;1.87;;;;;;;10.83;82.51;99931.77;3428595;84;31624;-87
2021/05/23 04:36:29;;;;;;;6.73;2.23;;;;;;;10.90;82.41;99944.77;3432688;84;99143;-84
2021/05/23 04:41:29;;;;;;;5.70;1.90;;;;;;;10.94;82.39;99946.91;3419623;84;32145;-87
2021/05/23 04:46:30;;;;;;;4.00;1.73;;;;;;;10.93;82.22;99940.63;3423224;84;98997;-88
2021/05/23 04:51:31;;;;;;;4.06;1.42;;;;;;;10.91;82.20;99948.48;3430397;84;32149;-88
2021/05/23 04:56:31;;;;;;;6.80;2.23;;;;;;;10.87;82.14;99950.45;3425222;84;98900;-87
2021/05/23 05:01:32;;;;;;;5.25;1.72;;;;;;;10.85;82.12;99956.16;3424440;84;25939;-87
2021/05/23 05:06:33;;;;;;;3.23;1.60;;;;;;;10.90;82.29;99959.91;3422602;84;98833;-88
2021/05/23 05:11:34;;;;;;;3.70;2.10;;;;;;;11.02;82.38;99967.18;3435441;84;35039;-86
2021/05/23 05:16:35;;;;;;;4.53;1.87;;;;;;;11.23;82.35;99971.95;3419151;84;99203;-87
2021/05/23 05:21:36;;;;;;;5.10;2.20;;;;;;;11.57;82.28;99985.55;3427667;84;34788;-87
2021/05/23 05:26:39;;;;;;;5.47;1.90;;;;;;;11.90;81.50;99987.33;3414187;84;99242;-86
2021/05/23 05:31:40;;;;;;;5.63;1.87;;;;;;;12.37;81.04;99991.56;3432371;84;25845;-87
2021/05/23 05:36:41;;;;;;;5.30;2.00;;;;;;;12.82;80.38;100013.44;3429978;83;98714;-85
2021/05/23 05:41:41;;;;;;;4.83;1.77;;;;;;;13.44;79.04;100025.36;3418832;84;34820;-88
2021/05/23 05:46:42;;;;;;;4.10;1.63;;;;;;;13.85;77.70;100028.20;3424896;84;99271;-86
2021/05/23 05:51:43;;;;;;;5.97;2.20;;;;;;;14.22;76.74;100031.05;3424494;84;34863;-86
2021/05/23 05:56:44;;;;;;;3.87;1.87;;;;;;;14.48;75.40;100035.31;3435045;84;99402;-87
2021/05/23 06:01:44;;;;;;;6.77;2.00;;;;;;;14.71;73.81;100044.36;3422269;84;33055;-88
2021/05/23 06:06:45;;;;;;;4.40;2.30;;;;;;;14.99;73.14;100055.86;3427506;84;99153;-87
2021/05/23 06:11:46;;;;;;;4.70;2.17;;;;;;;15.20;72.46;100058.36;3427845;84;34930;-89
2021/05/23 06:16:47;;;;;;;3.23;1.73;;;;;;;15.47;71.34;100065.36;3413559;84;99552;-88
2021/05/23 06:21:47;;;;;;;6.97;2.47;;;;;;;15.81;71.01;100061.23;3427370;84;27148;-88
2021/05/23 06:26:48;;;;;;;4.58;2.08;;;;;;;16.10;69.35;100060.97;3414095;84;99121;-86
2021/05/23 06:31:49;;;;;;;5.84;2.64;;;;;;;16.24;68.25;100068.27;3429180;84;26804;-86
2021/05/23 06:36:50;;;;;;;5.15;1.98;;;;;;;16.41;67.49;100081.85;3417996;84;99246;-83
2021/05/23 06:41:51;;;;;;;5.44;1.88;;;;;;;16.55;67.86;100075.25;3427683;84;30650;-88
2021/05/23 06:46:51;;;;;;;3.15;2.00;;;;;;;16.68;66.80;100080.38;3417650;84;99496;-86
2021/05/23 06:51:52;;;;;;;4.45;1.98;;;;;;;16.84;66.04;100082.62;3418959;84;28756;-87
2021/05/23 06:56:53;;;;;;;4.80;2.10;;;;;;;16.94;65.55;100083.64;3402192;84;99198;-88
2021/05/23 07:01:54;;;;;;;4.17;2.10;;;;;;;16.88;64.53;100076.98;3412178;84;28711;-85
2021/05/23 07:06:55;;;;;;;4.03;1.70;;;;;;;17.00;64.17;100080.54;3418569;84;99154;-88
2021/05/23 07:11:56;;;;;;;5.25;2.00;;;;;;;17.12;64.05;100094.55;3413439;84;25775;-87
2021/05/23 07:16:56;;;;;;;7.30;2.77;;;;;;;17.27;62.52;100091.66;3407884;84;99440;-88
2021/05/23 07:21:57;;;;;;;7.77;2.20;;;;;;;17.20;62.40;100088.24;3414101;84;26168;-89
2021/05/23 07:26:58;;;;;;;5.87;2.00;;;;;;;17.11;61.51;100093.62;3406125;84;99236;-88
2021/05/23 07:31:59;;;;;;;4.50;1.77;;;;;;;17.02;60.65;100098.95;3417332;84;33266;-88
2021/05/23 07:37:00;;;;;;;6.83;2.27;;;;;;;17.16;60.88;100099.45;3412830;84;99111;-87
2021/05/23 07:42:00;;;;;;;3.67;1.80;;;;;;;17.41;61.03;100101.73;3409974;84;33166;-87
2021/05/23 07:47:01;;;;;;;6.23;2.00;;;;;;;17.51;60.02;100100.12;3403235;84;99174;-88
2021/05/23 07:52:02;;;;;;;6.65;2.27;;;;;;;17.57;59.89;100105.35;3416083;84;33342;-88
2021/05/23 07:57:04;;;;;;;5.10;1.60;;;;;;;17.56;58.75;100110.72;3419034;84;99413;-88
2021/05/23 08:02:05;;;;;;;4.58;1.60;;;;;;;17.53;57.56;100115.77;3434758;84;33232;-88
2021/05/23 08:07:06;;;;;;;4.23;1.50;;;;;;;17.36;57.79;100121.67;3429842;84;99709;-89
2021/05/23 08:12:07;;;;;;;3.33;1.60;;;;;;;17.34;58.37;100122.72;3431572;84;26381;-87
2021/05/23 08:17:09;;;;;;;5.90;1.80;;;;;;;17.47;58.34;100136.97;3423015;84;99180;-87
2021/05/23 08:22:09;;;;;;;4.67;1.80;;;;;;;17.49;58.33;100138.70;3424929;84;26321;-90
2021/05/23 08:27:10;;;;;;;3.67;1.70;;;;;;;17.54;58.50;100134.66;3423363;84;99505;-87
2021/05/23 08:32:11;;;;;;;5.17;2.47;;;;;;;17.95;58.72;100125.14;3433214;84;31952;-85
2021/05/23 08:37:11;;;;;;;3.93;1.70;;;;;;;18.70;57.94;100127.83;3423860;84;99073;-87
2021/05/23 08:42:12;;;;;;;3.58;1.30;;;;;;;18.91;55.65;100124.46;3422796;84;31652;-87
2021/05/23 08:47:14;;;;;;;2.55;1.37;;;;;;;19.26;55.72;100135.27;3421715;84;99069;-86
2021/05/23 08:52:15;;;;;;;3.92;1.80;;;;;;;19.21;53.75;100146.38;3430817;84;32277;-83
2021/05/23 08:57:23;;;;;;;4.83;1.67;;;;;;;19.13;54.59;100135.83;3426600;84;99015;-86
2021/05/23 09:02:26;;;;;;;4.65;2.10;;;;;;;19.08;54.34;100144.10;3427673;84;31837;-83
2021/05/23 09:07:26;;;;;;;3.00;1.92;;;;;;;19.19;55.32;100148.77;3416847;84;99239;-84
2021/05/23 09:12:27;;;;;;;5.83;1.87;;;;;;;19.49;55.11;100149.73;3424216;84;31501;-85
2021/05/23 09:17:28;;;;;;;4.72;1.85;;;;;;;20.03;55.17;100149.05;3425823;84;99223;-85
2021/05/23 09:22:29;;;;;;;4.17;1.75;;;;;;;20.86;55.03;100137.67;3424717;84;30978;-86
2021/05/23 09:27:33;;;;;;;3.42;1.47;;;;;;;20.91;49.67;100143.33;3424207;84;99338;-86
2021/05/23 09:32:40;;;;;;;1.60;1.40;;;;;;;20.87;51.58;100149.02;3422638;84;31732;-85
2021/05/23 09:37:42;;;;;;;3.85;1.70;;;;;;;21.39;50.61;100147.76;3428533;84;99074;-88
2021/05/23 09:42:46;;;;;;;2.52;1.30;;;;;;;21.98;48.16;100148.10;3426699;84;32895;-86
2021/05/23 09:47:58;;;;;;;2.95;1.30;;;;;;;21.77;47.76;100146.92;3411864;84;99277;-84
2021/05/23 09:52:59;;;;;;;2.35;1.27;;;;;;;21.25;46.42;100147.51;3422310;84;31685;-86
2021/05/23 09:58:00;;;;;;;1.70;1.20;;;;;;;21.39;47.88;100160.97;3418445;84;98977;-85
2021/05/23 10:03:01;;;;;;;4.62;1.32;;;;;;;21.62;47.35;100164.69;3418921;84;31702;-85
2021/05/23 10:08:15;;;;;;;1.70;1.20;;;;;;;21.78;46.54;100175.70;3411914;84;99287;-84
2021/05/23 10:13:18;;;;;;;2.00;0.90;;;;;;;21.58;45.96;100167.62;3425877;84;32249;-86
2021/05/23 10:18:23;;;;;;;5.58;1.17;;;;;;;21.12;45.79;100172.75;3420151;84;99029;-90
2021/05/23 10:23:34;;;;;;;3.37;1.00;;;;;;;20.96;46.80;100174.93;3422074;84;26575;-87
2021/05/23 10:28:45;;;;;;;3.42;1.15;;;;;;;20.80;46.96;100181.45;3415226;83;98810;-89
2021/05/23 10:33:54;;;;;;;1.02;0.80;;;;;;;20.79;47.46;100170.10;3429984;84;31715;-90
2021/05/23 10:38:57;;;;;;;1.02;0.78;;;;;;;21.12;47.00;100173.36;3427276;84;98859;-87
2021/05/23 10:44:03;;;;;;;1.32;0.75;;;;;;;21.36;45.81;100175.26;3436180;84;32316;-87
2021/05/23 10:49:07;;;;;;;3.25;1.32;;;;;;;21.48;45.99;100177.20;3428637;84;99045;-90
2021/05/23 10:54:15;;;;;;;2.67;0.85;;;;;;;21.28;43.01;100185.16;3432869;84;32181;-87
2021/05/23 10:59:21;;;;;;;2.60;1.05;;;;;;;21.34;45.07;100182.55;3424107;84;98959;-89
2021/05/23 11:04:24;;;;;;;1.70;0.90;;;;;;;21.35;42.04;100183.50;3428215;84;31765;-88
2021/05/23 11:09:30;;;;;;;1.72;0.80;;;;;;;21.16;43.37;100180.41;3418238;84;98871;-89
2021/05/23 11:14:31;;;;;;;1.70;0.90;;;;;;;20.90;43.35;100174.74;3420654;84;99136;-86
2021/05/23 11:19:32;;;;;;;1.80;0.90;;;;;;;20.83;44.41;100186.16;3433850;84;31662;-91
2021/05/23 11:24:35;;;;;;;1.65;0.65;;;;;;;21.25;44.58;100176.27;3418363;84;99025;-87
2021/05/23 11:29:37;;;;;;;2.92;0.80;;;;;;;21.44;42.00;100181.38;3412784;84;45210;-86
2021/05/23 11:34:38;;;;;;;1.53;0.47;;;;;;;20.96;40.18;100186.91;3427473;84;99250;-88
2021/05/23 11:39:39;;;;;;;1.25;0.50;;;;;;;20.33;41.48;100194.61;3429771;84;29793;-87
2021/05/23 11:44:43;;;;;;;1.27;0.50;;;;;;;20.62;40.95;100190.27;3422532;84;99152;-84
2021/05/23 11:49:44;;;;;;;2.52;0.65;;;;;;;20.59;42.05;100186.36;3418650;84;31774;-90
2021/05/23 11:54:45;;;;;;;1.73;0.60;;;;;;;21.23;42.26;100171.75;3430300;83;108402;-92
2021/05/23 11:59:46;;;;;;;2.98;0.70;;;;;;;21.86;43.86;100167.96;3441012;84;32369;-92
2021/05/23 12:04:47;;;;;;;1.98;0.55;;;;;;;22.14;43.43;100184.30;3437928;84;99471;-92
2021/05/23 12:09:49;;;;;;;2.52;0.85;;;;;;;22.35;42.90;100175.03;3437935;84;30655;-92
2021/05/23 12:14:50;;;;;;;2.58;0.80;;;;;;;22.13;42.44;100168.72;3430679;84;98793;-89
2021/05/23 12:19:56;;;;;;;3.95;0.70;;;;;;;21.95;43.84;100182.63;3435500;84;32152;-91
2021/05/23 12:25:05;;;;;;;;;;;;;;;21.98;43.45;100194.34;3433250;84;99105;-89
2021/05/23 12:30:11;;;;;;;2.65;0.62;;;;;;;21.77;41.40;100193.76;3431003;84;26527;-91
2021/05/23 12:35:19;;;;;;;4.22;0.82;;;;;;;21.78;43.58;100200.31;3432128;84;99035;-91
2021/05/23 12:40:30;;;;;;;3.77;0.90;;;;;;;21.72;42.73;100192.95;3435730;84;31700;-92
2021/05/23 12:45:31;;;;;;;3.87;0.70;;;;;;;21.43;42.86;100189.63;3435400;84;99211;-88
2021/05/23 12:50:37;;;;;;;3.17;0.90;;;;;;;21.25;43.70;100191.66;3431400;84;30480;-89
2021/05/23 12:55:39;;;;;;;;;;;;;;;21.13;43.71;100192.50;3430311;84;99411;-88
2021/05/23 13:00:43;;;;;;;5.62;1.80;;;;;;;20.86;43.16;100199.22;3433644;84;31704;-90
2021/05/23 13:05:57;;;;;;;3.05;1.20;;;;;;;20.54;47.63;100224.67;3427038;84;99300;-87
2021/05/23 13:11:00;;;;;;;1.50;0.68;;;;;;;20.02;50.93;100216.55;3430626;84;32308;-85
2021/05/23 13:16:04;;;;;;;1.70;0.75;;;;;;;20.00;53.80;100210.00;3419140;84;98970;-86
2021/05/23 13:21:18;;;;;;;2.05;0.65;;;;;;;20.14;54.09;100204.62;3427605;84;32184;-86
2021/05/23 13:26:23;;;;;;;2.00;0.80;;;;;;;20.16;54.46;100197.98;3410455;84;99096;-89
2021/05/23 13:31:24;;;;;;;5.97;0.82;;;;;;;20.25;53.19;100200.88;3428009;84;31682;-85
2021/05/23 13:36:24;;;;;;;1.40;0.88;;;;;;;20.34;52.44;100208.77;3428142;84;99497;-86
2021/05/23 13:41:26;;;;;;;2.10;0.60;;;;;;;20.36;51.65;100216.69;3423270;84;29991;-87
2021/05/23 13:46:27;;;;;;;2.17;0.60;;;;;;;20.16;50.98;100218.31;3422111;84;99113;-86
2021/05/23 13:51:28;;;;;;;3.17;1.05;;;;;;;20.08;50.69;100221.17;3435697;84;30780;-85
2021/05/23 13:56:29;;;;;;;2.22;0.78;;;;;;;20.03;50.47;100234.27;3427317;84;99185;-88
2021/05/23 14:01:30;;;;;;;1.92;0.70;;;;;;;19.87;50.55;100244.73;3422958;84;26986;-87
2021/05/23 14:06:31;;;;;;;6.37;1.33;;;;;;;19.47;50.55;100273.62;3424318;84;99186;-90
2021/05/23 14:11:32;;;;;;;7.90;1.05;;;;;;;18.48;52.36;100297.44;3425465;84;26517;-86
2021/05/23 14:16:33;;;;;;;4.47;1.55;;;;;;;17.89;55.08;100284.19;3428550;84;99098;-84
2021/05/23 14:21:35;;;;;;;3.55;0.95;;;;;;;17.63;56.22;100286.50;3437052;84;25792;-86
2021/05/23 14:26:36;;;;;;;7.05;1.22;;;;;;;17.37;58.08;100285.39;3425962;84;99106;-87
2021/05/23 14:31:37;;;;;;;4.97;1.93;;;;;;;17.31;59.42;100288.48;3440364;84;35230;-86
2021/05/23 14:36:38;;;;;;;2.30;0.80;;;;;;;17.27;60.70;100283.58;3429589;83;99526;-87
2021/05/23 14:41:38;;;;;;;3.10;1.07;;;;;;;17.22;60.71;100284.07;3430849;84;33222;-86
2021/05/23 14:46:39;;;;;;;3.50;1.17;;;;;;;17.03;60.53;100287.61;3424149;84;98758;-85
2021/05/23 14:51:40;;;;;;;4.70;1.20;;;;;;;16.96;61.25;100286.94;3424004;84;33091;-86
2021/05/23 14:56:41;;;;;;;3.02;1.10;;;;;;;16.58;62.53;100279.40;3414279;84;99333;-86
2021/05/23 15:01:41;;;;;;;4.22;1.47;;;;;;;16.58;62.53;100279.40;3432091;84;30103;-86
2021/05/23 15:06:42;;;;;;;2.52;0.90;;;;;;;16.60;62.95;100315.91;3419184;84;99177;-87
2021/05/23 15:11:43;;;;;;;0.68;0.40;;;;;;;16.40;62.08;100346.95;3420880;84;32505;-84
2021/05/23 15:16:43;;;;;;;0.40;0.40;;;;;;;15.95;60.98;100349.69;3423280;84;99095;-87
2021/05/23 15:21:44;;;;;;;0.70;0.40;;;;;;;15.62;61.27;100351.85;3427033;84;30669;-88
2021/05/23 15:31:52;;;;;;;1.50;0.65;;;;;;;15.27;62.14;100327.20;3425196;84;32445;-86
2021/05/23 15:36:56;;;;;;;1.77;0.80;;;;;;;15.25;62.47;100321.87;3418829;84;99264;-86
2021/05/23 15:41:57;;;;;;;4.47;1.85;;;;;;;15.27;63.13;100315.34;3429439;84;33661;-85
2021/05/23 15:46:58;;;;;;;3.72;1.22;;;;;;;15.22;63.61;100306.08;3418686;84;99103;-85
2021/05/23 15:51:59;;;;;;;1.20;0.80;;;;;;;15.21;64.22;100320.53;3431157;84;30676;-86
2021/05/23 15:57:00;;;;;;;4.30;1.00;;;;;;;15.18;64.10;100330.27;3418042;84;99402;-86
2021/05/23 16:02:00;;;;;;;1.27;0.67;;;;;;;15.15;63.98;100340.19;3434499;84;26577;-85
2021/05/23 16:07:01;;;;;;;4.03;1.00;;;;;;;15.09;63.94;100342.45;3415910;84;99115;-86
2021/05/23 16:12:02;;;;;;;1.70;0.67;;;;;;;15.05;63.69;100341.06;3426754;84;25980;-85
2021/05/23 16:17:03;;;;;;;1.87;0.72;;;;;;;15.03;63.66;100347.62;3424030;84;99355;-86
2021/05/23 16:22:03;;;;;;;3.53;0.80;;;;;;;15.03;63.66;100353.75;3431595;84;33231;-88
2021/05/23 16:27:05;;;;;;;2.30;0.90;;;;;;;15.03;63.79;100359.30;3430394;84;99148;-87
2021/05/23 16:32:06;;;;;;;2.13;0.80;;;;;;;15.03;64.12;100370.38;3431759;84;32847;-86
2021/05/23 16:37:07;;;;;;;0.87;0.50;;;;;;;15.04;63.71;100379.69;3429246;84;101041;-89
2021/05/23 16:42:08;;;;;;;4.77;1.10;;;;;;;15.04;63.62;100378.91;3436747;84;33632;-90
2021/05/23 16:47:08;;;;;;;1.93;0.93;;;;;;;14.98;63.84;100379.93;3428037;84;99291;-89
2021/05/23 16:52:09;;;;;;;3.77;1.00;;;;;;;14.85;64.19;100389.93;3428730;84;33301;-87
2021/05/23 16:57:10;;;;;;;4.20;0.80;;;;;;;14.69;64.00;100393.00;3423288;84;99272;-87
2021/05/23 17:02:13;;;;;;;3.37;0.90;;;;;;;14.58;64.18;100394.45;3432085;84;33211;-87
2021/05/23 17:07:19;;;;;;;1.87;0.77;;;;;;;14.48;64.40;100397.27;3424160;84;99202;-90
2021/05/23 17:12:17;;;;;;;4.83;1.13;;;;;;;14.42;65.02;100394.14;3426688;84;33595;-91
2021/05/23 17:17:18;;;;;;;3.17;1.03;;;;;;;14.37;65.35;100398.72;3424223;84;98802;-89
2021/05/23 17:22:19;;;;;;;4.80;1.83;;;;;;;14.33;66.01;100399.94;3425598;84;33547;-90
2021/05/23 17:27:20;;;;;;;1.60;0.80;;;;;;;14.32;65.79;100401.10;3421241;84;99103;-85
2021/05/23 17:32:20;;;;;;;2.73;0.70;;;;;;;14.26;65.07;100411.02;3425813;84;33279;-87
2021/05/23 17:37:21;;;;;;;2.00;0.93;;;;;;;14.22;64.71;100421.34;3425169;84;99117;-87
2021/05/23 17:42:22;;;;;;;1.97;0.80;;;;;;;14.14;65.22;100429.42;3428333;84;33701;-86
2021/05/23 17:47:23;;;;;;;2.08;1.02;;;;;;;14.06;64.91;100437.57;3431629;84;99192;-85
2021/05/23 17:52:23;;;;;;;1.47;0.90;;;;;;;14.01;64.82;100431.83;3430980;84;32262;-86
2021/05/23 17:57:26;;;;;;;1.33;0.57;;;;;;;13.97;64.46;100433.04;3410337;84;99073;-87
2021/05/23 18:02:27;;;;;;;1.98;0.80;;;;;;;13.91;64.35;100435.41;3417321;84;33633;-88
2021/05/23 18:07:28;;;;;;;2.40;0.67;;;;;;;13.88;64.51;100445.10;3408992;84;99191;-87
2021/05/23 18:12:29;;;;;;;2.53;0.80;;;;;;;13.74;64.87;100454.22;3416607;84;32189;-87
2021/05/23 18:17:29;;;;;;;1.97;0.80;;;;;;;13.61;65.14;100465.50;3404007;84;99026;-86
2021/05/23 18:22:30;;;;;;;1.70;0.73;;;;;;;13.48;65.63;100472.62;3417478;84;31652;-86
2021/05/23 18:27:32;;;;;;;2.17;0.80;;;;;;;13.39;66.06;100475.56;3414549;84;99134;-85
2021/05/23 18:32:32;;;;;;;2.03;0.80;;;;;;;13.29;66.31;100482.67;3419237;84;31641;-86
2021/05/23 18:37:40;;;;;;;1.27;0.90;;;;;;;13.18;66.66;100492.13;3412612;84;99162;-86
2021/05/23 18:42:41;;;;;;;2.45;0.82;;;;;;;13.08;67.40;100485.41;3412015;84;33353;-85
2021/05/23 18:47:44;;;;;;;2.20;1.00;;;;;;;12.98;67.42;100495.06;3403617;84;99225;-85
2021/05/23 18:52:46;;;;;;;2.27;1.20;;;;;;;12.89;68.04;100490.46;3414383;84;34459;-85
2021/05/23 18:57:47;;;;;;;3.13;1.07;;;;;;;12.79;68.62;100502.27;3426269;84;99187;-84
2021/05/23 19:02:48;;;;;;;2.70;1.03;;;;;;;12.63;68.86;100518.37;3435340;84;31670;-85
2021/05/23 19:07:50;;;;;;;1.33;0.77;;;;;;;12.51;69.21;100529.19;3437060;84;99005;-84
2021/05/23 19:12:52;;;;;;;2.33;1.13;;;;;;;12.39;69.73;100532.29;3431063;84;31730;-85
2021/05/23 19:17:53;;;;;;;2.13;1.30;;;;;;;12.25;70.24;100539.67;3425261;83;98912;-84
2021/05/23 19:22:54;;;;;;;1.57;0.90;;;;;;;12.14;70.58;100555.37;3430583;84;31667;-84
2021/05/23 19:27:55;;;;;;;5.17;2.47;;;;;;;12.01;70.93;100565.14;3422929;84;98977;-85
2021/05/23 19:32:59;;;;;;;5.87;2.27;;;;;;;11.90;71.43;100562.89;3441858;84;31820;-84
2021/05/23 19:38:01;;;;;;;8.53;3.12;;;;;;;11.76;71.98;100565.52;3426477;84;98983;-83
2021/05/23 19:43:02;;;;;;;8.38;3.17;;;;;;;11.62;72.26;100578.59;3474159;83;33197;-84
2021/05/23 19:48:03;;;;;;;8.13;3.47;;;;;;;11.53;72.65;100580.86;3471206;83;98963;-84
2021/05/23 19:53:04;;;;;;;7.30;3.40;;;;;;;11.40;73.29;100596.06;3418225;85;31668;-83
2021/05/23 19:58:05;;;;;;;6.33;3.47;;;;;;;11.28;73.49;100594.96;3426391;84;98831;-85
2021/05/23 20:03:06;;;;;;;7.27;3.83;;;;;;;11.19;73.72;100605.51;3439897;84;31594;-83
2021/05/23 20:08:07;;;;;;;7.60;3.43;;;;;;;11.09;73.95;100614.44;3427661;84;98622;-84
2021/05/23 20:13:08;;;;;;;12.20;5.60;;;;;;;10.99;74.45;100619.23;3433224;84;31589;-86
2021/05/23 20:18:09;;;;;;;15.43;6.97;;;;;;;10.92;74.97;100623.28;3432721;84;99151;-84
2021/05/23 20:23:13;;;;;;;11.15;5.25;;;;;;;10.84;75.24;100622.96;3431559;84;31639;-84
2021/05/23 20:28:14;;;;;;;11.97;6.03;;;;;;;10.80;75.62;100632.34;3427853;84;98996;-84
2021/05/23 20:33:15;;;;;;;13.03;5.27;;;;;;;10.74;75.89;100637.97;3436033;84;31654;-85
2021/05/23 20:38:16;;;;;;;11.05;4.90;;;;;;;10.70;76.27;100639.88;3430027;84;99005;-83
2021/05/23 20:43:17;;;;;;;10.00;5.30;;;;;;;10.61;76.28;100628.34;3434782;84;31819;-85
2021/05/23 20:48:17;;;;;;;15.63;7.10;;;;;;;10.54;76.66;100626.30;3428296;84;99294;-85
2021/05/23 20:53:18;;;;;;;11.27;5.33;;;;;;;10.49;76.88;100632.12;3432660;84;31603;-85
2021/05/23 20:58:20;;;;;;;10.77;5.20;;;;;;;10.42;76.73;100632.00;3415466;84;99213;-86
2021/05/23 21:03:21;;;;;;;11.23;5.10;;;;;;;10.35;77.01;100633.27;3422360;84;31588;-84
2021/05/23 21:08:21;;;;;;;11.56;5.16;;;;;;;10.27;77.20;100630.22;3400942;84;99269;-84
2021/05/23 21:13:22;;;;;;;14.30;5.70;;;;;;;10.22;77.31;100643.48;3411606;84;26528;-85
2021/05/23 21:18:23;;;;;;;10.05;4.83;;;;;;;10.15;77.47;100667.53;3407967;84;99110;-85
2021/05/23 21:23:23;;;;;;;12.63;6.50;;;;;;;10.11;77.95;100668.64;3414462;84;34838;-85
2021/05/23 21:28:26;;;;;;;10.30;4.93;;;;;;;10.04;78.11;100678.93;3486115;83;99009;-85
2021/05/23 21:33:28;;;;;;;11.13;4.60;;;;;;;10.00;78.67;100680.81;3472434;83;34847;-87
2021/05/23 21:38:28;;;;;;;9.33;3.93;;;;;;;9.98;78.82;100684.49;3481181;83;98911;-91
2021/05/23 21:43:29;;;;;;;11.67;5.30;;;;;;;9.95;78.61;100690.73;3492393;83;36031;-88
2021/05/23 21:48:31;;;;;;;9.83;4.70;;;;;;;9.91;78.88;100692.62;3487804;82;98758;-89
2021/05/23 21:53:34;;;;;;;11.43;5.07;;;;;;;9.84;78.93;100697.20;3494502;83;35351;-87
2021/05/23 21:58:35;;;;;;;10.60;4.75;;;;;;;9.76;79.15;100705.11;3505750;81;98816;-89
2021/05/23 22:03:37;;;;;;;10.25;4.95;;;;;;;9.67;78.87;100703.16;3546817;81;26452;-89
2021/05/23 22:08:38;;;;;;;9.97;4.27;;;;;;;9.62;78.78;100714.45;3527889;81;98815;-89
2021/05/23 22:13:39;;;;;;;10.60;4.73;;;;;;;9.56;78.83;100722.77;3542948;81;26129;-90
2021/05/23 22:18:40;;;;;;;10.50;5.13;;;;;;;9.44;79.08;100727.83;3536816;81;98848;-89
2021/05/23 22:23:41;;;;;;;12.17;5.17;;;;;;;9.36;79.16;100737.66;3538242;81;34790;-89
2021/05/23 22:28:42;;;;;;;10.00;4.03;;;;;;;9.27;79.36;100743.38;3532435;81;98812;-88
2021/05/23 22:33:43;;;;;;;9.67;4.73;;;;;;;9.24;79.44;100750.16;3538764;81;34748;-89
2021/05/23 22:38:44;;;;;;;9.57;4.23;;;;;;;9.17;79.78;100749.42;3536807;81;98503;-90
2021/05/23 22:43:45;;;;;;;8.37;4.00;;;;;;;9.08;79.74;100764.52;3542537;81;34837;-89
2021/05/23 22:48:45;;;;;;;10.63;4.03;;;;;;;9.03;80.18;100768.91;3544217;81;97883;-89
2021/05/23 22:53:46;;;;;;;8.68;3.37;;;;;;;9.00;81.01;100762.19;3539613;81;34797;-88
2021/05/23 22:58:47;;;;;;;8.70;3.80;;;;;;;8.97;80.78;100768.98;3531432;81;98261;-88
2021/05/23 23:04:03;;;;;;;8.43;3.40;;;;;;;8.93;80.86;100784.00;3543948;81;26545;-87
2021/05/23 23:08:51;;;;;;;8.85;4.00;;;;;;;8.85;80.98;100782.25;3521873;81;98538;-88
2021/05/23 23:13:58;;;;;;;6.93;3.20;;;;;;;8.77;81.27;100785.19;3537176;81;25859;-89
2021/05/23 23:18:58;;;;;;;8.70;3.30;;;;;;;8.70;81.70;100795.97;3532060;81;98244;-88
2021/05/23 23:23:59;;;;;;;7.20;3.30;;;;;;;8.66;81.79;100806.87;3534587;81;26608;-88
2021/05/23 23:29:00;;;;;;;7.23;3.27;;;;;;;8.63;82.09;100810.91;3540839;81;98651;-88
2021/05/23 23:34:01;;;;;;;7.10;3.40;;;;;;;8.59;82.29;100819.61;3535564;81;32570;-88
2021/05/23 23:39:05;;;;;;;6.03;2.73;;;;;;;8.58;82.19;100825.69;3527159;81;98689;-88